Time;durP1;ratioP1;P1;durP2;ratioP2;P2;SDS_P1;SDS_P2;PMS_P1;PMS_P2;Temp;Humidity;BMP_temperature;BMP_pressure;BME280_temperature;BME280_humidity;BME280_pressure;Samples;Min_cycle;Max_cycle;Signal;HPM_P1;HPM_P2
2022/08/02 00:00:43;;;;;;;1.98;1.38;;;24.70;72.00;;;;;;5037009;28;20326;-78
2022/08/02 00:03:12;;;;;;;3.72;1.60;;;24.70;72.00;;;;;;5050141;28;20190;-79
2022/08/02 00:05:40;;;;;;;3.10;1.77;;;24.80;72.20;;;;;;5049264;28;20209;-77
2022/08/02 00:08:21;;;;;;;3.15;1.50;;;24.70;72.20;;;;;;5040864;28;20286;-72
2022/08/02 00:10:50;;;;;;;2.65;1.58;;;24.70;72.20;;;;;;5039338;28;20798;-73
2022/08/02 00:13:18;;;;;;;3.65;1.50;;;24.60;72.20;;;;;;5039407;28;20201;-74
2022/08/02 00:15:46;;;;;;;3.30;1.30;;;24.70;72.30;;;;;;5041252;28;20195;-73
2022/08/02 00:18:15;;;;;;;4.40;1.77;;;24.60;72.20;;;;;;5041443;28;20194;-74
2022/08/02 00:20:43;;;;;;;2.40;1.40;;;24.60;72.20;;;;;;5043029;28;20186;-74
2022/08/02 00:23:12;;;;;;;5.20;1.60;;;24.60;72.20;;;;;;5036876;28;20194;-73
2022/08/02 00:25:42;;;;;;;4.35;1.77;;;24.60;72.30;;;;;;5039528;28;20199;-74
2022/08/02 00:28:23;;;;;;;3.22;1.63;;;24.60;73.20;;;;;;5041583;28;20219;-78
2022/08/02 00:30:56;;;;;;;3.25;1.42;;;24.60;72.40;;;;;;5043900;28;20226;-77
2022/08/02 00:33:24;;;;;;;3.00;1.48;;;24.60;72.50;;;;;;5048146;28;20214;-76
2022/08/02 00:36:12;;;;;;;2.35;1.35;;;24.60;72.50;;;;;;5047131;28;20750;-76
2022/08/02 00:38:41;;;;;;;2.72;1.52;;;24.50;72.50;;;;;;5045742;28;20245;-76
2022/08/02 00:41:16;;;;;;;3.15;1.75;;;24.50;72.60;;;;;;5041784;28;20188;-76
2022/08/02 00:43:45;;;;;;;2.28;1.38;;;24.50;72.70;;;;;;5050978;28;20243;-76
2022/08/02 00:46:14;;;;;;;3.75;1.70;;;24.50;72.60;;;;;;5047554;28;20194;-75
2022/08/02 00:48:43;;;;;;;3.05;1.80;;;24.50;72.60;;;;;;5054717;28;20196;-75
2022/08/02 00:51:13;;;;;;;2.95;1.88;;;24.50;72.60;;;;;;5040898;28;20661;-75
2022/08/02 00:53:41;;;;;;;3.50;1.80;;;24.50;72.70;;;;;;5043578;28;20685;-75
2022/08/02 00:56:10;;;;;;;3.00;1.60;;;24.50;72.80;;;;;;5048628;28;20816;-77
2022/08/02 00:58:40;;;;;;;2.90;1.83;;;24.50;72.80;;;;;;5040253;28;20190;-78
2022/08/02 01:01:08;;;;;;;5.03;1.92;;;24.40;72.90;;;;;;5043013;28;20221;-77
2022/08/02 01:03:37;;;;;;;3.13;1.50;;;24.40;72.90;;;;;;5048339;28;20304;-77
2022/08/02 01:06:05;;;;;;;4.03;1.80;;;24.40;73.10;;;;;;5044788;28;20192;-77
2022/08/02 01:08:41;;;;;;;4.63;2.30;;;24.30;73.20;;;;;;5045111;28;20201;-77
2022/08/02 01:11:11;;;;;;;3.00;2.03;;;24.30;73.30;;;;;;5042734;28;20668;-77
2022/08/02 01:13:41;;;;;;;3.22;2.13;;;24.30;73.30;;;;;;5043165;28;20205;-77
2022/08/02 01:16:19;;;;;;;4.35;2.50;;;24.30;73.40;;;;;;5042895;28;20676;-76
2022/08/02 01:18:53;;;;;;;7.32;2.63;;;24.20;73.50;;;;;;5047344;28;20190;-76
2022/08/02 01:21:33;;;;;;;4.03;2.20;;;24.20;73.50;;;;;;5047954;28;20195;-77
2022/08/02 01:24:16;;;;;;;4.43;2.08;;;24.20;73.60;;;;;;5043054;28;20212;-77
2022/08/02 01:26:49;;;;;;;3.42;1.80;;;24.20;73.60;;;;;;5042447;28;20193;-77
2022/08/02 01:29:25;;;;;;;3.75;2.03;;;24.20;74.20;;;;;;5046867;28;20183;-77
2022/08/02 01:31:58;;;;;;;3.72;1.98;;;24.10;73.60;;;;;;5040981;28;20194;-77
2022/08/02 01:34:33;;;;;;;3.30;1.83;;;24.10;73.70;;;;;;5046452;28;20198;-76
2022/08/02 01:37:08;;;;;;;5.63;2.38;;;24.10;73.90;;;;;;5040736;28;20644;-77
2022/08/02 01:39:39;;;;;;;3.65;1.88;;;24.00;73.90;;;;;;5042334;28;20222;-77
2022/08/02 01:42:08;;;;;;;3.55;1.92;;;24.00;74.00;;;;;;5049126;28;20922;-77
2022/08/02 01:44:41;;;;;;;2.80;1.60;;;24.00;74.10;;;;;;5041283;28;20292;-76
2022/08/02 01:47:16;;;;;;;3.78;1.83;;;24.00;74.10;;;;;;5044131;28;21531;-78
2022/08/02 01:49:47;;;;;;;4.28;2.17;;;24.00;74.20;;;;;;5043717;28;20195;-78
2022/08/02 01:52:22;;;;;;;5.70;2.47;;;23.90;74.10;;;;;;5036857;28;20190;-78
2022/08/02 01:54:54;;;;;;;5.18;2.38;;;23.90;74.20;;;;;;5041761;28;20213;-75
2022/08/02 01:57:24;;;;;;;4.05;2.05;;;23.90;74.30;;;;;;5038700;28;20188;-78
2022/08/02 01:59:59;;;;;;;4.25;2.38;;;23.90;74.40;;;;;;5042876;28;20188;-78
2022/08/02 02:02:31;;;;;;;4.72;2.47;;;23.90;74.50;;;;;;5041239;28;20298;-77
2022/08/02 02:05:01;;;;;;;4.65;2.85;;;23.90;74.50;;;;;;5042815;28;20559;-78
2022/08/02 02:07:32;;;;;;;5.80;2.72;;;23.90;74.50;;;;;;5037984;28;20193;-78
2022/08/02 02:10:02;;;;;;;3.78;2.10;;;23.80;74.50;;;;;;5043154;28;20203;-78
2022/08/02 02:12:33;;;;;;;6.10;2.00;;;23.80;74.70;;;;;;5042896;28;20194;-76
2022/08/02 02:15:04;;;;;;;6.35;2.15;;;23.80;74.80;;;;;;5045232;28;20190;-78
2022/08/02 02:17:33;;;;;;;2.53;1.65;;;23.70;74.70;;;;;;5038236;28;20588;-77
2022/08/02 02:20:23;;;;;;;2.85;2.00;;;23.70;74.70;;;;;;5046070;28;20629;-78
2022/08/02 02:22:52;;;;;;;3.63;2.00;;;23.70;74.90;;;;;;5041001;28;20219;-78
2022/08/02 02:25:22;;;;;;;3.92;1.60;;;23.70;75.10;;;;;;5044233;28;20199;-78
2022/08/02 02:28:06;;;;;;;2.80;2.03;;;23.60;75.20;;;;;;5041327;28;20661;-78
2022/08/02 02:30:39;;;;;;;4.22;2.20;;;23.60;75.20;;;;;;5040078;28;20183;-78
2022/08/02 02:33:10;;;;;;;2.80;1.90;;;23.60;75.30;;;;;;5041571;28;20675;-77
2022/08/02 02:35:40;;;;;;;3.78;2.03;;;23.50;75.30;;;;;;5040440;28;20199;-77
2022/08/02 02:38:14;;;;;;;3.65;2.08;;;23.50;75.30;;;;;;5044205;28;20198;-78
2022/08/02 02:40:45;;;;;;;4.32;2.40;;;23.50;75.30;;;;;;5048877;28;20183;-77
2022/08/02 02:43:14;;;;;;;3.90;2.00;;;23.50;75.40;;;;;;5037764;28;20208;-77
2022/08/02 02:45:46;;;;;;;4.47;1.67;;;23.50;75.50;;;;;;5039283;28;20198;-77
2022/08/02 02:48:15;;;;;;;4.07;1.65;;;23.50;75.60;;;;;;5042319;28;20190;-78
2022/08/02 02:50:45;;;;;;;3.78;1.98;;;23.50;75.70;;;;;;5043096;28;20760;-77
2022/08/02 02:53:16;;;;;;;5.45;1.73;;;23.40;75.90;;;;;;5039720;28;20205;-78
2022/08/02 02:55:45;;;;;;;5.40;2.03;;;23.40;75.90;;;;;;5047139;28;20210;-78
2022/08/02 02:58:30;;;;;;;3.47;1.77;;;23.40;76.10;;;;;;5046718;28;20190;-77
2022/08/02 03:03:47;;;;;;;5.15;2.30;;;23.40;76.10;;;;;;5041838;28;20265;-77
2022/08/02 03:06:16;;;;;;;4.05;2.22;;;23.40;76.10;;;;;;5045623;28;20282;-77
2022/08/02 03:08:44;;;;;;;7.93;2.25;;;23.40;76.10;;;;;;5044514;28;20539;-77
2022/08/02 03:11:15;;;;;;;4.72;2.33;;;23.40;76.90;;;;;;5035705;28;20255;-78
2022/08/02 03:13:44;;;;;;;3.45;1.95;;;23.30;76.10;;;;;;5040576;28;20202;-78
2022/08/02 03:16:14;;;;;;;4.40;2.22;;;23.40;76.20;;;;;;5042210;28;20195;-78
2022/08/02 03:18:43;;;;;;;4.43;2.42;;;23.40;76.30;;;;;;5039959;28;20187;-78
2022/08/02 03:21:13;;;;;;;3.88;2.40;;;23.30;76.20;;;;;;5042793;28;20200;-78
2022/08/02 03:23:43;;;;;;;9.77;2.47;;;23.30;76.30;;;;;;5054017;28;20715;-78
2022/08/02 03:26:12;;;;;;;4.63;2.72;;;23.30;76.30;;;;;;5043474;28;20179;-78
2022/08/02 03:28:41;;;;;;;7.72;2.53;;;23.30;76.30;;;;;;5038628;28;20206;-78
2022/08/02 03:31:09;;;;;;;4.07;2.40;;;23.30;76.30;;;;;;5038342;28;20207;-79
2022/08/02 03:33:39;;;;;;;10.80;3.25;;;23.30;76.30;;;;;;5036786;28;20202;-78
2022/08/02 03:36:13;;;;;;;6.35;2.60;;;23.40;76.30;;;;;;5041229;28;20195;-78
2022/08/02 03:38:43;;;;;;;6.53;2.50;;;23.30;76.20;;;;;;5038132;28;21913;-79
2022/08/02 03:41:16;;;;;;;6.55;2.95;;;23.30;76.30;;;;;;5019022;28;20716;-77
2022/08/02 03:43:45;;;;;;;4.88;3.00;;;23.30;76.30;;;;;;5019020;28;20214;-79
2022/08/02 03:46:17;;;;;;;5.50;2.42;;;23.30;76.20;;;;;;5017174;28;20187;-79
2022/08/02 03:48:49;;;;;;;4.20;2.40;;;23.30;76.20;;;;;;5018250;28;20191;-79
2022/08/02 03:51:18;;;;;;;3.65;2.53;;;23.30;76.10;;;;;;5014287;28;20211;-79
2022/08/02 03:53:47;;;;;;;6.22;2.33;;;23.30;76.10;;;;;;5025467;28;20197;-79
2022/08/02 03:56:16;;;;;;;5.80;2.20;;;23.30;76.00;;;;;;5020073;28;20207;-79
2022/08/02 03:58:45;;;;;;;4.15;2.22;;;23.30;76.10;;;;;;5014145;28;20199;-79
2022/08/02 04:01:16;;;;;;;4.13;2.10;;;23.30;76.10;;;;;;5020367;28;20203;-78
2022/08/02 04:03:46;;;;;;;7.35;2.13;;;23.30;76.10;;;;;;5018529;28;20230;-79
2022/08/02 04:06:15;;;;;;;5.93;2.20;;;23.30;76.10;;;;;;5023609;28;20208;-79
2022/08/02 04:08:44;;;;;;;3.38;2.08;;;23.30;76.10;;;;;;5024289;28;20230;-80
2022/08/02 04:13:59;;;;;;;3.67;2.20;;;23.30;76.10;;;;;;5031021;28;20195;-80
2022/08/02 04:16:38;;;;;;;6.43;2.00;;;23.40;76.20;;;;;;5020872;28;20763;-80
2022/08/02 04:19:15;;;;;;;8.00;2.45;;;23.40;76.20;;;;;;5024021;28;20646;-80
2022/08/02 04:21:46;;;;;;;6.57;2.45;;;23.40;76.30;;;;;;5013307;28;20286;-79
2022/08/02 04:24:25;;;;;;;2.67;1.77;;;23.40;76.20;;;;;;5020843;28;20215;-79
2022/08/02 04:26:55;;;;;;;7.88;2.85;;;23.50;76.30;;;;;;5021906;28;20855;-79
2022/08/02 04:29:30;;;;;;;2.95;1.67;;;23.50;76.30;;;;;;5019324;28;20219;-78
2022/08/02 04:31:59;;;;;;;6.05;1.98;;;23.50;76.20;;;;;;5025207;28;20711;-80
2022/08/02 04:34:29;;;;;;;3.38;2.08;;;23.50;76.20;;;;;;5024465;28;20195;-79
2022/08/02 04:36:58;;;;;;;3.95;2.10;;;23.60;76.20;;;;;;5017439;28;20184;-79
2022/08/02 04:39:27;;;;;;;2.97;2.00;;;23.60;76.20;;;;;;5019708;28;20223;-79
2022/08/02 04:41:55;;;;;;;6.00;2.05;;;23.60;76.10;;;;;;5022776;28;20195;-79
2022/08/02 04:44:25;;;;;;;5.90;1.90;;;23.70;76.60;;;;;;5023041;28;20226;-79
2022/08/02 04:46:54;;;;;;;3.95;2.13;;;23.70;76.20;;;;;;5025054;28;20199;-79
2022/08/02 04:49:23;;;;;;;3.55;2.08;;;23.70;76.20;;;;;;5021021;28;20195;-79
2022/08/02 04:51:53;;;;;;;3.28;1.90;;;23.70;76.10;;;;;;5019729;28;20215;-80
2022/08/02 04:54:24;;;;;;;2.78;1.88;;;23.80;76.10;;;;;;5025111;28;20204;-79
2022/08/02 04:56:52;;;;;;;8.10;2.13;;;23.80;76.00;;;;;;5016546;28;20223;-79
2022/08/02 04:59:21;;;;;;;3.60;2.05;;;23.80;75.90;;;;;;5018711;28;20838;-80
2022/08/02 05:01:49;;;;;;;4.13;2.20;;;23.90;75.80;;;;;;5012779;28;20184;-78
2022/08/02 05:04:18;;;;;;;3.85;2.08;;;23.90;75.80;;;;;;5018488;28;21251;-79
2022/08/02 05:06:46;;;;;;;4.20;2.05;;;23.90;75.70;;;;;;5024213;28;20219;-79
2022/08/02 05:09:16;;;;;;;3.05;1.85;;;24.00;75.70;;;;;;5017931;28;20184;-78
2022/08/02 05:11:45;;;;;;;6.50;2.40;;;24.00;75.50;;;;;;5020046;28;20192;-79
2022/08/02 05:14:22;;;;;;;3.30;1.98;;;24.00;75.30;;;;;;5025116;28;20610;-77
2022/08/02 05:16:50;;;;;;;3.25;2.25;;;24.10;75.20;;;;;;5029115;28;20547;-77
2022/08/02 05:19:19;;;;;;;4.20;2.25;;;24.10;75.10;;;;;;5002787;28;20189;-76
2022/08/02 05:21:47;;;;;;;4.85;2.30;;;24.10;75.00;;;;;;5024326;28;20225;-78
2022/08/02 05:24:17;;;;;;;3.45;2.20;;;24.20;75.00;;;;;;5030262;28;20216;-78
2022/08/02 05:26:45;;;;;;;6.05;2.50;;;24.30;75.20;;;;;;5029729;28;20207;-78
2022/08/02 05:29:14;;;;;;;6.22;2.97;;;24.30;75.30;;;;;;5027095;28;20188;-78
2022/08/02 05:31:42;;;;;;;4.65;2.92;;;24.40;75.40;;;;;;5025483;28;20187;-79
2022/08/02 05:34:10;;;;;;;6.22;2.60;;;24.40;75.40;;;;;;5024605;28;20196;-78
2022/08/02 05:36:39;;;;;;;5.20;2.55;;;24.50;75.50;;;;;;5017830;28;20224;-79
2022/08/02 05:39:09;;;;;;;9.85;3.25;;;24.50;75.50;;;;;;5024908;28;20223;-78
2022/08/02 05:41:40;;;;;;;6.93;2.95;;;24.60;75.70;;;;;;5024945;28;20279;-78
2022/08/02 05:44:09;;;;;;;7.38;3.10;;;24.70;75.70;;;;;;5020335;28;20219;-78
2022/08/02 05:46:37;;;;;;;4.78;2.88;;;24.80;75.70;;;;;;5024813;28;20650;-78
2022/08/02 05:49:06;;;;;;;6.93;3.55;;;24.80;75.70;;;;;;5024225;28;20343;-78
2022/08/02 05:51:38;;;;;;;9.07;4.15;;;24.90;75.70;;;;;;5027951;28;20539;-78
2022/08/02 05:54:15;;;;;;;6.20;3.22;;;25.00;75.60;;;;;;5021076;28;20291;-78
2022/08/02 05:56:56;;;;;;;4.57;2.90;;;25.10;75.50;;;;;;5024918;28;20840;-79
2022/08/02 05:59:39;;;;;;;8.07;3.38;;;25.10;75.40;;;;;;5026193;28;20184;-78
2022/08/02 06:02:19;;;;;;;7.43;3.13;;;25.20;75.30;;;;;;5023305;28;20188;-77
2022/08/02 06:04:56;;;;;;;7.88;3.30;;;25.30;75.20;;;;;;5021782;28;20207;-78
2022/08/02 06:07:25;;;;;;;8.30;3.72;;;25.30;75.10;;;;;;5023857;28;20192;-78
2022/08/02 06:09:58;;;;;;;6.03;2.67;;;25.40;75.10;;;;;;5024553;28;20204;-78
2022/08/02 06:12:31;;;;;;;10.98;3.50;;;25.50;75.20;;;;;;5027778;28;20234;-78
2022/08/02 06:15:00;;;;;;;3.97;2.63;;;25.50;75.20;;;;;;5026783;28;20188;-78
2022/08/02 06:17:29;;;;;;;7.35;3.63;;;25.60;75.00;;;;;;5023023;28;20200;-78
2022/08/02 06:19:58;;;;;;;12.00;4.05;;;25.60;74.80;;;;;;5030269;28;20191;-78
2022/08/02 06:22:28;;;;;;;16.38;4.15;;;25.70;74.70;;;;;;5023359;28;20203;-77
2022/08/02 06:25:04;;;;;;;10.75;4.10;;;25.80;74.70;;;;;;5023101;28;20338;-76
2022/08/02 06:27:35;;;;;;;8.27;4.07;;;25.90;74.40;;;;;;5024356;28;20199;-77
2022/08/02 06:30:05;;;;;;;12.13;4.32;;;25.90;74.30;;;;;;5024257;28;20191;-78
2022/08/02 06:32:34;;;;;;;10.23;4.53;;;26.00;74.30;;;;;;5028103;28;20218;-77
2022/08/02 06:35:03;;;;;;;12.05;4.35;;;26.00;74.10;;;;;;5016622;28;20200;-80
2022/08/02 06:37:37;;;;;;;9.70;4.18;;;26.10;74.00;;;;;;5031883;28;20227;-79
2022/08/02 06:40:18;;;;;;;9.07;4.38;;;26.30;74.00;;;;;;5024948;28;20223;-79
2022/08/02 06:42:54;;;;;;;9.98;4.15;;;26.30;73.40;;;;;;5026849;28;20195;-80
2022/08/02 06:45:22;;;;;;;6.28;3.50;;;26.50;73.30;;;;;;5027096;28;20211;-79
2022/08/02 06:47:51;;;;;;;6.68;3.00;;;26.50;73.00;;;;;;5031188;28;20197;-79
2022/08/02 06:50:19;;;;;;;6.40;3.00;;;26.70;72.60;;;;;;5024663;28;20600;-79
2022/08/02 06:52:48;;;;;;;5.95;2.90;;;26.70;72.40;;;;;;5025033;28;20192;-80
2022/08/02 06:55:16;;;;;;;7.50;3.22;;;26.80;72.20;;;;;;5022253;28;20207;-79
2022/08/02 06:57:44;;;;;;;6.00;2.95;;;26.80;71.80;;;;;;5024709;28;20746;-76
2022/08/02 07:00:15;;;;;;;7.53;2.88;;;26.80;71.70;;;;;;5025549;28;20199;-77
2022/08/02 07:02:45;;;;;;;12.77;3.00;;;26.90;71.20;;;;;;5025969;28;20207;-75
2022/08/02 07:05:13;;;;;;;5.95;3.03;;;27.00;70.80;;;;;;5025513;28;21548;-78
2022/08/02 07:07:42;;;;;;;4.72;2.47;;;27.00;70.50;;;;;;5021840;28;20196;-79
2022/08/02 07:10:10;;;;;;;5.82;2.72;;;27.00;70.10;;;;;;5024445;28;20258;-77
2022/08/02 07:12:39;;;;;;;10.40;3.08;;;27.10;70.20;;;;;;5027427;28;20198;-78
2022/08/02 07:15:08;;;;;;;4.78;2.47;;;27.10;70.00;;;;;;5023907;28;20203;-78
2022/08/02 07:17:38;;;;;;;5.60;2.47;;;27.20;70.00;;;;;;5024158;28;20200;-78
2022/08/02 07:20:09;;;;;;;7.35;2.58;;;27.20;69.70;;;;;;5024853;28;20195;-79
2022/08/02 07:22:38;;;;;;;10.55;3.28;;;27.30;69.40;;;;;;5024977;28;20192;-80
2022/08/02 07:25:07;;;;;;;7.18;2.72;;;27.40;69.10;;;;;;5029255;28;20223;-79
2022/08/02 07:27:35;;;;;;;7.30;2.42;;;27.40;68.70;;;;;;5025941;28;20188;-78
2022/08/02 07:30:06;;;;;;;3.92;2.60;;;27.50;68.90;;;;;;5024226;28;20187;-77
2022/08/02 07:32:34;;;;;;;5.97;2.10;;;27.50;68.60;;;;;;5022334;28;20192;-78
2022/08/02 07:35:05;;;;;;;2.55;1.63;;;27.50;68.40;;;;;;5023767;28;20192;-78
2022/08/02 07:37:37;;;;;;;2.85;1.45;;;27.60;68.00;;;;;;5021072;28;20234;-79
2022/08/02 07:40:26;;;;;;;4.10;1.60;;;27.60;67.70;;;;;;5022920;28;20229;-78
2022/08/02 07:42:56;;;;;;;4.85;2.33;;;27.70;67.60;;;;;;5024421;28;20208;-78
2022/08/02 07:45:32;;;;;;;10.65;2.35;;;27.70;66.90;;;;;;5026036;28;20819;-77
2022/08/02 07:48:03;;;;;;;6.30;2.45;;;27.80;67.00;;;;;;5019604;28;20672;-76
2022/08/02 07:50:33;;;;;;;6.30;2.03;;;27.80;66.50;;;;;;5024765;28;20203;-76
2022/08/02 07:53:02;;;;;;;6.18;1.95;;;27.90;66.20;;;;;;5024359;28;20202;-76
2022/08/02 07:55:30;;;;;;;6.93;2.22;;;27.90;66.30;;;;;;5023318;28;20200;-78
2022/08/02 07:58:08;;;;;;;6.25;2.20;;;28.00;66.30;;;;;;5027088;28;20283;-78
2022/08/02 08:00:42;;;;;;;6.10;1.90;;;28.10;66.10;;;;;;5024853;28;20271;-77
2022/08/02 08:03:10;;;;;;;7.03;1.58;;;28.10;65.70;;;;;;5025675;28;20207;-77
2022/08/02 08:05:43;;;;;;;4.82;2.22;;;28.20;65.60;;;;;;5014761;28;20211;-77
2022/08/02 08:08:12;;;;;;;5.22;2.08;;;28.30;65.30;;;;;;5018927;28;20196;-77
2022/08/02 08:10:45;;;;;;;6.00;2.08;;;28.30;64.80;;;;;;5018991;28;20192;-75
2022/08/02 08:13:13;;;;;;;2.92;1.85;;;28.40;64.90;;;;;;5024831;28;20196;-75
2022/08/02 08:15:45;;;;;;;3.17;1.45;;;28.40;64.30;;;;;;5020984;28;20294;-76
2022/08/02 08:18:20;;;;;;;4.93;1.80;;;28.50;64.20;;;;;;5022440;28;20191;-77
2022/08/02 08:20:50;;;;;;;3.17;1.75;;;28.50;63.70;;;;;;5027539;28;20192;-75
2022/08/02 08:23:19;;;;;;;8.27;1.75;;;28.60;63.70;;;;;;5025974;28;20250;-77
2022/08/02 08:25:47;;;;;;;3.17;1.60;;;28.60;63.20;;;;;;5021419;28;20259;-78
2022/08/02 08:28:16;;;;;;;5.10;1.85;;;28.60;63.30;;;;;;5020123;28;20195;-75
2022/08/02 08:30:46;;;;;;;4.45;1.42;;;28.60;63.00;;;;;;5026078;28;20267;-74
2022/08/02 08:33:14;;;;;;;5.22;1.20;;;28.70;63.10;;;;;;5020424;28;20196;-74
2022/08/02 08:35:43;;;;;;;2.97;1.50;;;28.70;62.80;;;;;;5023551;28;20394;-73
2022/08/02 08:38:14;;;;;;;1.95;1.20;;;28.70;62.20;;;;;;5021662;28;20700;-75
2022/08/02 08:40:43;;;;;;;2.47;1.00;;;28.70;61.50;;;;;;5024722;28;20226;-75
2022/08/02 08:43:13;;;;;;;3.22;0.88;;;28.70;61.60;;;;;;5020539;28;20210;-75
2022/08/02 08:45:44;;;;;;;1.92;1.40;;;28.70;61.60;;;;;;5022465;28;20217;-74
2022/08/02 08:48:24;;;;;;;1.20;0.95;;;28.70;61.10;;;;;;5025732;28;20203;-75
2022/08/02 08:51:11;;;;;;;1.77;0.80;;;28.80;61.30;;;;;;5026952;28;20187;-75
2022/08/02 08:53:43;;;;;;;1.35;0.70;;;28.80;60.80;;;;;;5027865;28;20191;-74
2022/08/02 08:56:13;;;;;;;2.28;0.70;;;28.80;60.00;;;;;;5022406;28;20192;-73
2022/08/02 08:58:44;;;;;;;4.15;0.85;;;28.90;59.50;;;;;;5023447;28;20246;-74
2022/08/02 09:01:15;;;;;;;1.00;0.80;;;28.90;58.70;;;;;;5026027;28;20196;-73
2022/08/02 09:03:44;;;;;;;1.83;0.70;;;28.90;57.90;;;;;;5022965;28;20188;-74
2022/08/02 09:06:13;;;;;;;1.35;0.70;;;28.90;58.20;;;;;;5027833;28;20584;-74
2022/08/02 09:08:43;;;;;;;1.20;0.80;;;29.00;58.60;;;;;;5024831;28;20211;-73
2022/08/02 09:11:16;;;;;;;1.20;0.82;;;29.00;58.60;;;;;;5026730;28;20203;-73
2022/08/02 09:13:53;;;;;;;1.88;0.93;;;29.00;57.80;;;;;;5026068;28;20916;-74
2022/08/02 09:16:30;;;;;;;1.90;0.90;;;29.00;58.10;;;;;;5025774;28;20219;-74
2022/08/02 09:18:59;;;;;;;3.22;0.90;;;29.00;58.20;;;;;;5025371;28;20188;-74
2022/08/02 09:21:36;;;;;;;1.10;0.82;;;29.00;58.40;;;;;;5024188;28;20856;-74
2022/08/02 09:24:16;;;;;;;4.28;1.02;;;29.00;58.50;;;;;;5023659;28;20206;-73
2022/08/02 09:26:45;;;;;;;2.88;0.95;;;29.10;58.60;;;;;;5022756;28;20211;-74
2022/08/02 09:29:14;;;;;;;3.95;0.98;;;29.10;58.60;;;;;;5026590;28;20689;-74
2022/08/02 09:31:43;;;;;;;1.75;1.02;;;29.10;58.10;;;;;;5028908;28;20211;-73
2022/08/02 09:34:17;;;;;;;3.42;0.68;;;29.20;57.40;;;;;;5025733;28;20190;-74
2022/08/02 09:36:47;;;;;;;1.13;0.90;;;29.20;56.90;;;;;;5025696;28;20254;-74
2022/08/02 09:39:25;;;;;;;1.90;0.80;;;29.20;56.40;;;;;;5022158;28;20309;-73
2022/08/02 09:42:09;;;;;;;1.83;0.70;;;29.20;57.00;;;;;;5028380;28;20192;-75
2022/08/02 09:44:38;;;;;;;1.17;0.80;;;29.20;56.70;;;;;;5022359;28;20258;-74
2022/08/02 09:47:15;;;;;;;1.17;0.80;;;29.20;55.90;;;;;;5028399;28;20219;-74
2022/08/02 09:49:47;;;;;;;2.35;0.90;;;29.30;56.30;;;;;;5025864;28;20191;-74
2022/08/02 09:52:23;;;;;;;0.65;0.50;;;29.30;55.90;;;;;;5018851;28;20183;-74
2022/08/02 09:55:12;;;;;;;0.88;0.70;;;29.50;56.10;;;;;;5016486;28;20197;-75
2022/08/02 09:57:40;;;;;;;1.60;0.80;;;29.60;55.30;;;;;;5025533;28;20208;-75
2022/08/02 10:00:11;;;;;;;2.72;0.82;;;29.60;55.00;;;;;;5025279;28;20192;-74
2022/08/02 10:03:08;;;;;;;2.90;0.70;;;29.70;55.00;;;;;;5028494;28;20855;-75
2022/08/02 10:05:52;;;;;;;1.23;0.70;;;29.80;55.40;;;;;;5022194;28;20194;-75
2022/08/02 10:08:23;;;;;;;2.22;0.60;;;29.80;55.20;;;;;;5023734;28;20634;-74
2022/08/02 10:11:00;;;;;;;1.10;0.73;;;29.80;55.30;;;;;;5025665;28;20198;-75
2022/08/02 10:13:30;;;;;;;4.70;1.02;;;29.90;55.00;;;;;;5027461;28;20215;-74
2022/08/02 10:15:59;;;;;;;1.80;0.85;;;29.90;55.10;;;;;;5024309;28;20825;-73
2022/08/02 10:18:28;;;;;;;1.30;0.80;;;29.90;55.00;;;;;;5026465;28;20200;-75
2022/08/02 10:21:12;;;;;;;1.10;0.70;;;30.00;55.00;;;;;;5024226;28;20200;-76
2022/08/02 10:23:44;;;;;;;3.45;0.80;;;30.10;54.90;;;;;;5019425;28;20207;-77
2022/08/02 10:26:18;;;;;;;2.88;0.50;;;30.10;54.90;;;;;;5027510;28;20270;-77
2022/08/02 10:28:49;;;;;;;1.70;0.90;;;30.30;54.60;;;;;;5022981;28;20234;-75
2022/08/02 10:31:25;;;;;;;1.55;0.68;;;30.30;54.30;;;;;;5026458;28;20287;-75
2022/08/02 10:33:55;;;;;;;1.45;0.75;;;30.40;54.40;;;;;;5018941;28;20190;-75
2022/08/02 10:36:26;;;;;;;1.23;0.60;;;30.40;53.90;;;;;;5026252;28;20198;-75
2022/08/02 10:38:57;;;;;;;0.95;0.55;;;30.50;54.10;;;;;;5023599;28;20216;-75
2022/08/02 10:41:44;;;;;;;0.85;0.70;;;30.50;54.10;;;;;;5026270;28;20586;-75
2022/08/02 10:44:31;;;;;;;3.47;0.75;;;30.50;54.20;;;;;;5028061;28;20206;-75
2022/08/02 10:47:27;;;;;;;3.67;1.15;;;30.50;54.00;;;;;;5022214;28;20835;-75
2022/08/02 10:49:56;;;;;;;1.85;0.70;;;30.50;53.50;;;;;;5029823;28;20188;-75
2022/08/02 10:52:25;;;;;;;1.52;0.70;;;30.50;53.40;;;;;;5023497;28;20639;-75
2022/08/02 10:54:58;;;;;;;1.92;0.90;;;30.50;53.60;;;;;;5023592;28;20203;-75
2022/08/02 10:57:29;;;;;;;1.73;0.73;;;30.50;53.40;;;;;;5022915;28;20696;-75
2022/08/02 11:00:01;;;;;;;1.27;0.80;;;30.50;53.60;;;;;;5023164;28;20196;-76
2022/08/02 11:02:41;;;;;;;1.00;0.70;;;30.60;53.50;;;;;;5023509;28;20789;-75
2022/08/02 11:05:15;;;;;;;1.73;1.08;;;30.70;53.60;;;;;;5033226;28;20198;-75
2022/08/02 11:07:45;;;;;;;1.58;0.70;;;30.80;53.50;;;;;;5017897;28;20309;-75
2022/08/02 11:10:34;;;;;;;1.08;0.70;;;30.80;53.20;;;;;;5018766;28;20208;-75
2022/08/02 11:13:15;;;;;;;3.22;0.90;;;30.80;53.30;;;;;;5021491;28;20190;-76
2022/08/02 11:16:00;;;;;;;2.17;0.85;;;30.90;53.40;;;;;;5021564;28;20187;-75
2022/08/02 11:19:02;;;;;;;1.80;0.82;;;30.90;53.10;;;;;;5019725;28;20289;-75
2022/08/02 11:21:35;;;;;;;1.00;0.80;;;31.00;53.60;;;;;;5024351;28;20222;-76
2022/08/02 11:24:27;;;;;;;3.35;0.90;;;31.10;53.60;;;;;;5025314;28;20191;-75
2022/08/02 11:26:56;;;;;;;1.45;0.95;;;31.20;53.40;;;;;;5021900;28;20846;-75
2022/08/02 11:29:34;;;;;;;1.35;0.80;;;31.30;53.20;;;;;;5021243;28;20203;-74
2022/08/02 11:32:07;;;;;;;1.75;0.98;;;31.40;53.30;;;;;;5019425;28;20634;-74
2022/08/02 11:34:36;;;;;;;1.10;0.90;;;31.40;52.30;;;;;;5027759;28;20556;-74
2022/08/02 11:37:06;;;;;;;1.40;1.00;;;31.50;52.10;;;;;;5027793;28;20227;-76
2022/08/02 11:39:34;;;;;;;1.00;0.70;;;31.50;52.20;;;;;;5026202;28;20313;-76
2022/08/02 11:42:03;;;;;;;2.75;0.80;;;31.50;52.10;;;;;;5027719;28;20196;-76
2022/08/02 11:44:41;;;;;;;4.07;0.98;;;31.60;52.10;;;;;;5026644;28;20191;-76
2022/08/02 11:47:09;;;;;;;3.17;0.90;;;31.50;52.10;;;;;;5032385;28;20191;-76
2022/08/02 11:49:38;;;;;;;0.98;0.80;;;31.50;52.20;;;;;;5025965;28;20192;-76
2022/08/02 11:52:09;;;;;;;1.27;0.90;;;31.60;52.10;;;;;;5025828;28;20207;-76
2022/08/02 11:54:40;;;;;;;3.90;0.90;;;31.60;52.00;;;;;;5025069;28;20195;-76
2022/08/02 11:57:17;;;;;;;1.63;0.82;;;31.70;51.90;;;;;;5023335;28;20207;-75
2022/08/02 11:59:51;;;;;;;3.00;1.42;;;31.70;51.80;;;;;;5017011;28;20180;-76
2022/08/02 12:02:21;;;;;;;1.05;0.85;;;31.80;50.80;;;;;;5023905;28;20407;-76
2022/08/02 12:04:54;;;;;;;1.48;0.80;;;31.80;50.90;;;;;;5026949;28;20199;-78
2022/08/02 12:07:30;;;;;;;3.15;1.00;;;31.90;51.20;;;;;;5024214;28;20218;-78
2022/08/02 12:10:06;;;;;;;1.83;1.00;;;32.00;51.10;;;;;;5021676;28;20782;-78
2022/08/02 12:12:47;;;;;;;2.88;1.10;;;32.00;50.70;;;;;;5019270;28;20196;-78
2022/08/02 12:15:30;;;;;;;1.63;0.90;;;32.10;50.40;;;;;;5022933;28;20192;-75
2022/08/02 12:20:45;;;;;;;2.78;0.98;;;32.10;50.60;;;;;;5022807;28;20196;-75
2022/08/02 12:23:14;;;;;;;1.20;0.90;;;32.10;50.70;;;;;;5020127;28;20200;-76
2022/08/02 12:25:42;;;;;;;1.40;0.85;;;32.20;50.50;;;;;;5026872;28;20192;-76
2022/08/02 12:28:15;;;;;;;3.25;1.10;;;32.10;50.20;;;;;;5019000;28;20231;-76
2022/08/02 12:30:57;;;;;;;1.17;0.85;;;32.20;50.20;;;;;;5022499;28;20645;-77
2022/08/02 12:33:28;;;;;;;1.65;1.00;;;32.20;50.40;;;;;;5029513;28;20277;-76
2022/08/02 12:35:57;;;;;;;1.40;0.90;;;32.30;50.20;;;;;;5024874;28;20929;-75
2022/08/02 12:38:26;;;;;;;2.03;0.85;;;32.30;50.20;;;;;;5028477;28;20196;-75
2022/08/02 12:40:54;;;;;;;1.20;0.80;;;32.40;50.00;;;;;;5030531;28;20188;-75
2022/08/02 12:43:24;;;;;;;1.00;0.80;;;32.40;50.10;;;;;;5021819;28;20748;-76
2022/08/02 12:45:56;;;;;;;1.83;0.88;;;32.40;50.00;;;;;;5027075;28;20202;-76
2022/08/02 12:48:33;;;;;;;2.10;0.80;;;32.30;50.00;;;;;;5025085;28;20302;-76
2022/08/02 12:51:19;;;;;;;1.65;0.82;;;32.30;50.00;;;;;;5019639;28;20189;-77
2022/08/02 12:53:48;;;;;;;2.92;1.00;;;32.30;50.00;;;;;;5016918;28;20219;-77
2022/08/02 12:56:29;;;;;;;4.30;0.80;;;32.20;49.70;;;;;;5027826;28;20216;-75
2022/08/02 12:58:58;;;;;;;1.80;1.25;;;32.30;49.40;;;;;;5022525;28;20195;-77
2022/08/02 13:01:28;;;;;;;1.75;0.90;;;32.30;49.60;;;;;;5026321;28;20520;-78
2022/08/02 13:03:58;;;;;;;3.08;1.00;;;32.30;49.60;;;;;;5027269;28;20218;-77
2022/08/02 13:06:40;;;;;;;2.22;0.90;;;32.40;49.30;;;;;;5011369;28;20976;-76
2022/08/02 13:09:14;;;;;;;3.45;0.77;;;32.50;49.20;;;;;;5025099;28;20578;-76
2022/08/02 13:11:43;;;;;;;2.72;0.93;;;32.50;49.30;;;;;;5025949;28;20187;-76
2022/08/02 13:14:13;;;;;;;2.30;1.00;;;32.60;49.40;;;;;;5023847;28;20276;-76
2022/08/02 13:16:44;;;;;;;4.60;1.00;;;32.70;48.90;;;;;;5022027;28;20711;-77
2022/08/02 13:19:14;;;;;;;0.80;0.75;;;32.70;48.80;;;;;;5028607;28;20784;-76